sensor_id;sensor_type;location;lat;lon;timestamp;temperature;humidity
5850;DHT22;2951;47.712;9.400;2023-06-26T00:01:28;18.60;99.90
5850;DHT22;2951;47.712;9.400;2023-06-26T00:03:58;18.60;99.90
5850;DHT22;2951;47.712;9.400;2023-06-26T00:06:26;18.30;99.90
5850;DHT22;2951;47.712;9.400;2023-06-26T00:08:53;18.40;99.90
5850;DHT22;2951;47.712;9.400;2023-06-26T00:11:20;18.40;99.90
5850;DHT22;2951;47.712;9.400;2023-06-26T00:13:47;18.40;99.90
5850;DHT22;2951;47.712;9.400;2023-06-26T00:16:14;18.30;99.90
5850;DHT22;2951;47.712;9.400;2023-06-26T00:18:41;18.30;99.90
5850;DHT22;2951;47.712;9.400;2023-06-26T00:21:07;18.40;99.90
5850;DHT22;2951;47.712;9.400;2023-06-26T00:23:34;18.30;99.90
5850;DHT22;2951;47.712;9.400;2023-06-26T00:26:05;18.40;99.90
5850;DHT22;2951;47.712;9.400;2023-06-26T00:28:32;18.30;99.90
5850;DHT22;2951;47.712;9.400;2023-06-26T00:30:58;18.20;99.90
5850;DHT22;2951;47.712;9.400;2023-06-26T00:33:25;18.20;99.90
5850;DHT22;2951;47.712;9.400;2023-06-26T00:35:52;18.10;99.90
5850;DHT22;2951;47.712;9.400;2023-06-26T00:38:19;18.10;99.90
5850;DHT22;2951;47.712;9.400;2023-06-26T00:40:45;18.20;99.90
5850;DHT22;2951;47.712;9.400;2023-06-26T00:43:12;18.20;99.90
5850;DHT22;2951;47.712;9.400;2023-06-26T00:45:39;18.10;99.90
5850;DHT22;2951;47.712;9.400;2023-06-26T00:48:09;18.20;99.90
5850;DHT22;2951;47.712;9.400;2023-06-26T00:50:38;18.10;99.90
5850;DHT22;2951;47.712;9.400;2023-06-26T00:53:05;18.20;99.90
5850;DHT22;2951;47.712;9.400;2023-06-26T00:55:32;18.10;99.90
5850;DHT22;2951;47.712;9.400;2023-06-26T00:57:58;18.20;99.90
5850;DHT22;2951;47.712;9.400;2023-06-26T01:00:25;18.20;99.90
5850;DHT22;2951;47.712;9.400;2023-06-26T01:02:52;18.20;99.90
5850;DHT22;2951;47.712;9.400;2023-06-26T01:05:19;18.20;99.90
5850;DHT22;2951;47.712;9.400;2023-06-26T01:07:47;18.20;99.90
5850;DHT22;2951;47.712;9.400;2023-06-26T01:10:16;18.20;99.90
5850;DHT22;2951;47.712;9.400;2023-06-26T01:12:43;18.10;99.90
5850;DHT22;2951;47.712;9.400;2023-06-26T01:15:11;18.00;99.90
5850;DHT22;2951;47.712;9.400;2023-06-26T01:17:37;18.00;99.90
5850;DHT22;2951;47.712;9.400;2023-06-26T01:20:06;18.00;99.90
5850;DHT22;2951;47.712;9.400;2023-06-26T01:23:20;17.90;99.90
5850;DHT22;2951;47.712;9.400;2023-06-26T01:25:43;17.60;99.90
5850;DHT22;2951;47.712;9.400;2023-06-26T01:28:14;17.40;99.90
5850;DHT22;2951;47.712;9.400;2023-06-26T01:30:42;17.40;99.90
5850;DHT22;2951;47.712;9.400;2023-06-26T01:33:09;17.40;99.90
5850;DHT22;2951;47.712;9.400;2023-06-26T01:35:36;17.40;99.90
5850;DHT22;2951;47.712;9.400;2023-06-26T01:38:16;17.40;99.90
5850;DHT22;2951;47.712;9.400;2023-06-26T01:40:43;17.50;99.90
5850;DHT22;2951;47.712;9.400;2023-06-26T01:43:18;17.50;99.90
5850;DHT22;2951;47.712;9.400;2023-06-26T01:45:48;17.50;99.90
5850;DHT22;2951;47.712;9.400;2023-06-26T01:48:16;17.50;99.90
5850;DHT22;2951;47.712;9.400;2023-06-26T01:50:43;17.60;99.90
5850;DHT22;2951;47.712;9.400;2023-06-26T01:53:12;17.60;99.90
5850;DHT22;2951;47.712;9.400;2023-06-26T01:55:45;17.50;99.90
5850;DHT22;2951;47.712;9.400;2023-06-26T01:58:13;17.50;99.90
5850;DHT22;2951;47.712;9.400;2023-06-26T02:00:40;17.50;99.90
5850;DHT22;2951;47.712;9.400;2023-06-26T02:03:07;17.50;99.90
5850;DHT22;2951;47.712;9.400;2023-06-26T02:05:34;17.40;99.90
5850;DHT22;2951;47.712;9.400;2023-06-26T02:08:01;17.40;99.90
5850;DHT22;2951;47.712;9.400;2023-06-26T02:10:29;17.40;99.90
5850;DHT22;2951;47.712;9.400;2023-06-26T02:12:56;17.40;99.90
5850;DHT22;2951;47.712;9.400;2023-06-26T02:15:23;17.40;99.90
5850;DHT22;2951;47.712;9.400;2023-06-26T02:17:49;17.30;99.90
5850;DHT22;2951;47.712;9.400;2023-06-26T02:20:16;17.20;99.90
5850;DHT22;2951;47.712;9.400;2023-06-26T02:22:43;17.20;99.90
5850;DHT22;2951;47.712;9.400;2023-06-26T02:25:09;17.20;99.90
5850;DHT22;2951;47.712;9.400;2023-06-26T02:27:36;17.30;99.90
5850;DHT22;2951;47.712;9.400;2023-06-26T02:30:03;17.30;99.90
5850;DHT22;2951;47.712;9.400;2023-06-26T02:32:30;17.20;99.90
5850;DHT22;2951;47.712;9.400;2023-06-26T02:34:57;17.20;99.90
5850;DHT22;2951;47.712;9.400;2023-06-26T02:37:24;17.10;99.90
5850;DHT22;2951;47.712;9.400;2023-06-26T02:39:50;17.10;99.90
5850;DHT22;2951;47.712;9.400;2023-06-26T02:42:17;17.10;99.90
5850;DHT22;2951;47.712;9.400;2023-06-26T02:44:44;17.00;99.90
5850;DHT22;2951;47.712;9.400;2023-06-26T02:47:11;17.00;99.90
5850;DHT22;2951;47.712;9.400;2023-06-26T02:49:38;16.90;99.90
5850;DHT22;2951;47.712;9.400;2023-06-26T02:52:05;16.90;99.90
5850;DHT22;2951;47.712;9.400;2023-06-26T02:54:31;16.90;99.90
5850;DHT22;2951;47.712;9.400;2023-06-26T02:56:59;16.80;99.90
5850;DHT22;2951;47.712;9.400;2023-06-26T02:59:26;16.80;99.90
5850;DHT22;2951;47.712;9.400;2023-06-26T03:01:52;16.70;99.90
5850;DHT22;2951;47.712;9.400;2023-06-26T03:04:19;16.70;99.90
5850;DHT22;2951;47.712;9.400;2023-06-26T03:06:48;16.80;99.90
5850;DHT22;2951;47.712;9.400;2023-06-26T03:09:14;16.70;99.90
5850;DHT22;2951;47.712;9.400;2023-06-26T03:11:42;16.70;99.90
5850;DHT22;2951;47.712;9.400;2023-06-26T03:14:09;16.60;99.90
5850;DHT22;2951;47.712;9.400;2023-06-26T03:16:36;16.60;99.90
5850;DHT22;2951;47.712;9.400;2023-06-26T03:19:03;16.50;99.90
5850;DHT22;2951;47.712;9.400;2023-06-26T03:21:29;16.50;99.90
5850;DHT22;2951;47.712;9.400;2023-06-26T03:23:56;16.50;99.90
5850;DHT22;2951;47.712;9.400;2023-06-26T03:26:23;16.50;99.90
5850;DHT22;2951;47.712;9.400;2023-06-26T03:28:54;16.50;99.90
5850;DHT22;2951;47.712;9.400;2023-06-26T03:31:20;16.40;99.90
5850;DHT22;2951;47.712;9.400;2023-06-26T03:33:47;16.40;99.90
5850;DHT22;2951;47.712;9.400;2023-06-26T03:36:14;16.40;99.90
5850;DHT22;2951;47.712;9.400;2023-06-26T03:38:41;16.40;99.90
5850;DHT22;2951;47.712;9.400;2023-06-26T03:41:07;16.40;99.90
5850;DHT22;2951;47.712;9.400;2023-06-26T03:43:34;16.30;99.90
5850;DHT22;2951;47.712;9.400;2023-06-26T03:46:01;16.40;99.90
5850;DHT22;2951;47.712;9.400;2023-06-26T03:48:28;16.40;99.90
5850;DHT22;2951;47.712;9.400;2023-06-26T03:50:55;16.40;99.90
5850;DHT22;2951;47.712;9.400;2023-06-26T03:53:23;16.50;99.90
5850;DHT22;2951;47.712;9.400;2023-06-26T03:55:50;16.60;99.90
5850;DHT22;2951;47.712;9.400;2023-06-26T03:58:17;16.50;99.90
5850;DHT22;2951;47.712;9.400;2023-06-26T04:00:44;16.50;99.90
5850;DHT22;2951;47.712;9.400;2023-06-26T04:03:11;16.60;99.90
5850;DHT22;2951;47.712;9.400;2023-06-26T04:05:37;16.60;99.90
5850;DHT22;2951;47.712;9.400;2023-06-26T04:08:04;16.60;99.90
5850;DHT22;2951;47.712;9.400;2023-06-26T04:10:31;16.70;99.90
5850;DHT22;2951;47.712;9.400;2023-06-26T04:12:58;16.70;99.90
5850;DHT22;2951;47.712;9.400;2023-06-26T04:15:24;16.80;99.90
5850;DHT22;2951;47.712;9.400;2023-06-26T04:17:51;16.90;99.90
5850;DHT22;2951;47.712;9.400;2023-06-26T04:20:18;17.00;99.90
5850;DHT22;2951;47.712;9.400;2023-06-26T04:22:45;17.00;99.90
5850;DHT22;2951;47.712;9.400;2023-06-26T04:25:11;17.00;99.90
5850;DHT22;2951;47.712;9.400;2023-06-26T04:27:38;17.10;99.90
5850;DHT22;2951;47.712;9.400;2023-06-26T04:30:06;17.20;99.90
5850;DHT22;2951;47.712;9.400;2023-06-26T04:32:34;17.30;99.90
5850;DHT22;2951;47.712;9.400;2023-06-26T04:35:01;17.40;99.90
5850;DHT22;2951;47.712;9.400;2023-06-26T04:37:27;17.50;99.90
5850;DHT22;2951;47.712;9.400;2023-06-26T04:39:54;17.40;99.90
5850;DHT22;2951;47.712;9.400;2023-06-26T04:42:21;17.40;99.90
5850;DHT22;2951;47.712;9.400;2023-06-26T04:44:52;17.40;99.90
5850;DHT22;2951;47.712;9.400;2023-06-26T04:47:18;17.50;99.90
5850;DHT22;2951;47.712;9.400;2023-06-26T04:49:45;17.50;99.90
5850;DHT22;2951;47.712;9.400;2023-06-26T04:52:12;17.60;99.90
5850;DHT22;2951;47.712;9.400;2023-06-26T04:54:42;17.50;99.90
5850;DHT22;2951;47.712;9.400;2023-06-26T04:57:09;17.50;99.90
5850;DHT22;2951;47.712;9.400;2023-06-26T04:59:36;17.40;99.90
5850;DHT22;2951;47.712;9.400;2023-06-26T05:02:02;17.40;99.90
5850;DHT22;2951;47.712;9.400;2023-06-26T05:04:29;17.40;99.90
5850;DHT22;2951;47.712;9.400;2023-06-26T05:06:56;17.60;99.90
5850;DHT22;2951;47.712;9.400;2023-06-26T05:09:23;17.70;99.90
5850;DHT22;2951;47.712;9.400;2023-06-26T05:11:50;17.90;99.90
5850;DHT22;2951;47.712;9.400;2023-06-26T05:14:16;17.90;99.90
5850;DHT22;2951;47.712;9.400;2023-06-26T05:16:43;17.90;99.90
5850;DHT22;2951;47.712;9.400;2023-06-26T05:19:10;17.90;99.90
5850;DHT22;2951;47.712;9.400;2023-06-26T05:21:37;17.90;99.90
5850;DHT22;2951;47.712;9.400;2023-06-26T05:24:04;17.90;99.90
5850;DHT22;2951;47.712;9.400;2023-06-26T05:26:31;17.90;99.90
5850;DHT22;2951;47.712;9.400;2023-06-26T05:28:58;18.00;99.90
5850;DHT22;2951;47.712;9.400;2023-06-26T05:31:25;18.20;99.90
5850;DHT22;2951;47.712;9.400;2023-06-26T05:33:52;18.30;99.90
5850;DHT22;2951;47.712;9.400;2023-06-26T05:36:21;18.40;99.90
5850;DHT22;2951;47.712;9.400;2023-06-26T05:38:48;18.50;99.90
5850;DHT22;2951;47.712;9.400;2023-06-26T05:41:17;18.70;99.90
5850;DHT22;2951;47.712;9.400;2023-06-26T05:43:44;18.80;99.90
5850;DHT22;2951;47.712;9.400;2023-06-26T05:46:10;19.00;99.90
5850;DHT22;2951;47.712;9.400;2023-06-26T05:48:37;19.10;99.90
5850;DHT22;2951;47.712;9.400;2023-06-26T05:51:04;19.20;99.90
5850;DHT22;2951;47.712;9.400;2023-06-26T05:53:31;19.40;99.90
5850;DHT22;2951;47.712;9.400;2023-06-26T05:55:58;19.40;99.90
5850;DHT22;2951;47.712;9.400;2023-06-26T05:58:25;19.60;99.90
5850;DHT22;2951;47.712;9.400;2023-06-26T06:00:53;19.80;99.90
5850;DHT22;2951;47.712;9.400;2023-06-26T06:03:20;19.90;99.90
5850;DHT22;2951;47.712;9.400;2023-06-26T06:05:47;20.00;99.90
5850;DHT22;2951;47.712;9.400;2023-06-26T06:08:14;20.00;99.90
5850;DHT22;2951;47.712;9.400;2023-06-26T06:10:41;20.10;99.90
5850;DHT22;2951;47.712;9.400;2023-06-26T06:13:08;20.20;99.90
5850;DHT22;2951;47.712;9.400;2023-06-26T06:15:35;20.30;99.90
5850;DHT22;2951;47.712;9.400;2023-06-26T06:18:01;20.30;99.90
5850;DHT22;2951;47.712;9.400;2023-06-26T06:20:28;20.30;99.90
5850;DHT22;2951;47.712;9.400;2023-06-26T06:22:55;20.50;99.90
5850;DHT22;2951;47.712;9.400;2023-06-26T06:25:22;20.60;99.90
5850;DHT22;2951;47.712;9.400;2023-06-26T06:27:48;20.60;99.90
5850;DHT22;2951;47.712;9.400;2023-06-26T06:30:15;20.60;99.90
5850;DHT22;2951;47.712;9.400;2023-06-26T06:32:43;20.70;99.90
5850;DHT22;2951;47.712;9.400;2023-06-26T06:35:10;20.90;99.90
5850;DHT22;2951;47.712;9.400;2023-06-26T06:37:37;20.90;99.90
5850;DHT22;2951;47.712;9.400;2023-06-26T06:40:08;21.10;99.90
5850;DHT22;2951;47.712;9.400;2023-06-26T06:42:36;21.10;99.90
5850;DHT22;2951;47.712;9.400;2023-06-26T06:45:03;21.20;99.90
5850;DHT22;2951;47.712;9.400;2023-06-26T06:47:30;21.30;99.90
5850;DHT22;2951;47.712;9.400;2023-06-26T06:49:57;21.40;99.90
5850;DHT22;2951;47.712;9.400;2023-06-26T06:52:23;21.50;99.90
5850;DHT22;2951;47.712;9.400;2023-06-26T06:54:51;21.70;99.90
5850;DHT22;2951;47.712;9.400;2023-06-26T06:57:18;21.90;99.90
5850;DHT22;2951;47.712;9.400;2023-06-26T06:59:47;21.90;99.90
5850;DHT22;2951;47.712;9.400;2023-06-26T07:02:17;22.00;99.90
5850;DHT22;2951;47.712;9.400;2023-06-26T07:04:44;22.20;99.90
5850;DHT22;2951;47.712;9.400;2023-06-26T07:07:11;22.40;99.90
5850;DHT22;2951;47.712;9.400;2023-06-26T07:09:40;22.50;99.90
5850;DHT22;2951;47.712;9.400;2023-06-26T07:12:07;22.70;99.90
5850;DHT22;2951;47.712;9.400;2023-06-26T07:14:33;22.70;99.90
5850;DHT22;2951;47.712;9.400;2023-06-26T07:17:00;22.80;99.90
5850;DHT22;2951;47.712;9.400;2023-06-26T07:19:27;22.90;99.90
5850;DHT22;2951;47.712;9.400;2023-06-26T07:21:54;22.90;99.90
5850;DHT22;2951;47.712;9.400;2023-06-26T07:24:21;23.20;99.90
5850;DHT22;2951;47.712;9.400;2023-06-26T07:26:48;23.30;99.90
5850;DHT22;2951;47.712;9.400;2023-06-26T07:29:20;23.40;99.90
5850;DHT22;2951;47.712;9.400;2023-06-26T07:31:46;23.50;99.90
5850;DHT22;2951;47.712;9.400;2023-06-26T07:34:14;23.50;99.90
5850;DHT22;2951;47.712;9.400;2023-06-26T07:36:41;23.70;99.90
5850;DHT22;2951;47.712;9.400;2023-06-26T07:39:07;23.60;99.90
5850;DHT22;2951;47.712;9.400;2023-06-26T07:41:38;23.70;99.90
5850;DHT22;2951;47.712;9.400;2023-06-26T07:44:04;23.80;99.90
5850;DHT22;2951;47.712;9.400;2023-06-26T07:46:31;23.90;99.90
5850;DHT22;2951;47.712;9.400;2023-06-26T07:48:58;24.10;99.90
5850;DHT22;2951;47.712;9.400;2023-06-26T07:51:24;24.00;99.90
5850;DHT22;2951;47.712;9.400;2023-06-26T07:53:51;23.90;99.90
5850;DHT22;2951;47.712;9.400;2023-06-26T07:56:18;24.30;99.90
5850;DHT22;2951;47.712;9.400;2023-06-26T07:58:45;24.30;99.90
5850;DHT22;2951;47.712;9.400;2023-06-26T08:01:12;24.50;99.90
5850;DHT22;2951;47.712;9.400;2023-06-26T08:03:38;24.60;99.90
5850;DHT22;2951;47.712;9.400;2023-06-26T08:06:06;24.60;99.90
5850;DHT22;2951;47.712;9.400;2023-06-26T08:08:35;24.70;99.90
5850;DHT22;2951;47.712;9.400;2023-06-26T08:11:01;24.70;99.90
5850;DHT22;2951;47.712;9.400;2023-06-26T08:13:28;25.00;99.90
5850;DHT22;2951;47.712;9.400;2023-06-26T08:15:55;25.20;99.90
5850;DHT22;2951;47.712;9.400;2023-06-26T08:18:21;25.20;99.90
5850;DHT22;2951;47.712;9.400;2023-06-26T08:20:48;25.40;99.90
5850;DHT22;2951;47.712;9.400;2023-06-26T08:23:15;25.40;99.90
5850;DHT22;2951;47.712;9.400;2023-06-26T08:25:41;25.60;99.90
5850;DHT22;2951;47.712;9.400;2023-06-26T08:28:08;25.70;99.90
5850;DHT22;2951;47.712;9.400;2023-06-26T08:30:35;25.70;99.90
5850;DHT22;2951;47.712;9.400;2023-06-26T08:33:02;25.70;99.90
5850;DHT22;2951;47.712;9.400;2023-06-26T08:35:29;25.80;99.90
5850;DHT22;2951;47.712;9.400;2023-06-26T08:37:56;25.80;99.90
5850;DHT22;2951;47.712;9.400;2023-06-26T08:40:23;25.70;99.90
5850;DHT22;2951;47.712;9.400;2023-06-26T08:42:50;25.80;99.90
5850;DHT22;2951;47.712;9.400;2023-06-26T08:45:20;25.90;99.90
5850;DHT22;2951;47.712;9.400;2023-06-26T08:47:47;25.80;99.90
5850;DHT22;2951;47.712;9.400;2023-06-26T08:50:14;26.00;99.90
5850;DHT22;2951;47.712;9.400;2023-06-26T08:55:09;26.10;99.90
5850;DHT22;2951;47.712;9.400;2023-06-26T08:57:37;26.20;99.90
5850;DHT22;2951;47.712;9.400;2023-06-26T09:00:05;26.50;99.90
5850;DHT22;2951;47.712;9.400;2023-06-26T09:02:32;26.40;99.90
5850;DHT22;2951;47.712;9.400;2023-06-26T09:04:59;26.60;99.90
5850;DHT22;2951;47.712;9.400;2023-06-26T09:07:26;26.70;99.90
5850;DHT22;2951;47.712;9.400;2023-06-26T09:09:52;26.70;99.90
5850;DHT22;2951;47.712;9.400;2023-06-26T09:12:20;26.90;99.90
5850;DHT22;2951;47.712;9.400;2023-06-26T09:14:47;27.00;99.90
5850;DHT22;2951;47.712;9.400;2023-06-26T09:17:13;27.10;99.90
5850;DHT22;2951;47.712;9.400;2023-06-26T09:19:40;27.20;99.90
5850;DHT22;2951;47.712;9.400;2023-06-26T09:22:10;27.10;99.90
5850;DHT22;2951;47.712;9.400;2023-06-26T09:24:37;27.10;99.90
5850;DHT22;2951;47.712;9.400;2023-06-26T09:27:04;26.90;99.90
5850;DHT22;2951;47.712;9.400;2023-06-26T09:29:31;27.00;99.90
5850;DHT22;2951;47.712;9.400;2023-06-26T09:31:59;26.80;99.90
5850;DHT22;2951;47.712;9.400;2023-06-26T09:34:30;26.80;99.90
5850;DHT22;2951;47.712;9.400;2023-06-26T09:36:57;27.10;99.90
5850;DHT22;2951;47.712;9.400;2023-06-26T09:39:24;27.30;99.90
5850;DHT22;2951;47.712;9.400;2023-06-26T09:41:51;27.30;99.90
5850;DHT22;2951;47.712;9.400;2023-06-26T09:44:18;27.20;99.90
5850;DHT22;2951;47.712;9.400;2023-06-26T09:46:44;27.10;99.90
5850;DHT22;2951;47.712;9.400;2023-06-26T09:49:11;27.00;99.90
5850;DHT22;2951;47.712;9.400;2023-06-26T09:51:39;27.30;99.90
5850;DHT22;2951;47.712;9.400;2023-06-26T09:54:06;27.50;99.90
5850;DHT22;2951;47.712;9.400;2023-06-26T09:56:33;27.70;99.90
5850;DHT22;2951;47.712;9.400;2023-06-26T09:59:02;27.50;99.90
5850;DHT22;2951;47.712;9.400;2023-06-26T10:01:30;27.60;99.90
5850;DHT22;2951;47.712;9.400;2023-06-26T10:03:57;27.60;99.90
5850;DHT22;2951;47.712;9.400;2023-06-26T10:06:27;27.80;99.90
5850;DHT22;2951;47.712;9.400;2023-06-26T10:08:54;28.10;99.90
5850;DHT22;2951;47.712;9.400;2023-06-26T10:11:22;28.30;99.90
5850;DHT22;2951;47.712;9.400;2023-06-26T10:13:51;28.30;99.90
5850;DHT22;2951;47.712;9.400;2023-06-26T10:16:23;28.50;99.90
5850;DHT22;2951;47.712;9.400;2023-06-26T10:18:56;28.50;99.90
5850;DHT22;2951;47.712;9.400;2023-06-26T10:21:25;28.40;99.90
5850;DHT22;2951;47.712;9.400;2023-06-26T10:23:53;28.40;99.90
5850;DHT22;2951;47.712;9.400;2023-06-26T10:26:20;28.30;99.90
5850;DHT22;2951;47.712;9.400;2023-06-26T10:28:48;28.20;99.90
5850;DHT22;2951;47.712;9.400;2023-06-26T10:31:20;28.20;99.90
5850;DHT22;2951;47.712;9.400;2023-06-26T10:33:48;28.40;99.90
5850;DHT22;2951;47.712;9.400;2023-06-26T10:36:16;28.30;99.90
5850;DHT22;2951;47.712;9.400;2023-06-26T10:38:48;28.50;99.90
5850;DHT22;2951;47.712;9.400;2023-06-26T10:41:17;28.70;99.90
5850;DHT22;2951;47.712;9.400;2023-06-26T10:43:45;28.70;99.90
5850;DHT22;2951;47.712;9.400;2023-06-26T10:46:15;28.80;99.90
5850;DHT22;2951;47.712;9.400;2023-06-26T10:48:57;28.90;99.90
5850;DHT22;2951;47.712;9.400;2023-06-26T10:51:28;29.00;99.90
5850;DHT22;2951;47.712;9.400;2023-06-26T10:53:56;29.20;99.90
5850;DHT22;2951;47.712;9.400;2023-06-26T10:59:21;28.90;99.90
5850;DHT22;2951;47.712;9.400;2023-06-26T11:04:40;28.90;99.90
5850;DHT22;2951;47.712;9.400;2023-06-26T11:07:28;29.30;99.90
5850;DHT22;2951;47.712;9.400;2023-06-26T11:12:38;29.30;99.90
5850;DHT22;2951;47.712;9.400;2023-06-26T11:15:07;29.40;99.90
5850;DHT22;2951;47.712;9.400;2023-06-26T11:17:34;29.30;99.90
5850;DHT22;2951;47.712;9.400;2023-06-26T11:20:01;29.20;99.90
5850;DHT22;2951;47.712;9.400;2023-06-26T11:22:30;29.30;99.90
5850;DHT22;2951;47.712;9.400;2023-06-26T11:24:59;29.40;99.90
5850;DHT22;2951;47.712;9.400;2023-06-26T11:27:31;29.60;99.90
5850;DHT22;2951;47.712;9.400;2023-06-26T11:29:58;29.70;99.90
5850;DHT22;2951;47.712;9.400;2023-06-26T11:32:26;30.00;99.90
5850;DHT22;2951;47.712;9.400;2023-06-26T11:34:53;30.10;99.90
5850;DHT22;2951;47.712;9.400;2023-06-26T11:37:21;30.10;99.90
5850;DHT22;2951;47.712;9.400;2023-06-26T11:39:48;30.10;99.90
5850;DHT22;2951;47.712;9.400;2023-06-26T11:42:15;29.90;99.90
5850;DHT22;2951;47.712;9.400;2023-06-26T11:44:42;29.90;99.90
5850;DHT22;2951;47.712;9.400;2023-06-26T11:47:13;30.00;99.90
5850;DHT22;2951;47.712;9.400;2023-06-26T11:49:43;30.00;99.90
5850;DHT22;2951;47.712;9.400;2023-06-26T11:52:10;30.20;99.90
5850;DHT22;2951;47.712;9.400;2023-06-26T11:54:37;30.00;99.90
5850;DHT22;2951;47.712;9.400;2023-06-26T11:57:05;30.20;99.90
5850;DHT22;2951;47.712;9.400;2023-06-26T11:59:38;30.40;99.90
5850;DHT22;2951;47.712;9.400;2023-06-26T12:02:14;30.40;99.90
5850;DHT22;2951;47.712;9.400;2023-06-26T12:04:42;30.50;99.90
5850;DHT22;2951;47.712;9.400;2023-06-26T12:07:09;30.60;99.90
5850;DHT22;2951;47.712;9.400;2023-06-26T12:09:41;30.90;99.90
5850;DHT22;2951;47.712;9.400;2023-06-26T12:12:08;31.10;99.90
5850;DHT22;2951;47.712;9.400;2023-06-26T12:14:35;31.30;99.90
5850;DHT22;2951;47.712;9.400;2023-06-26T12:17:12;31.20;99.90
5850;DHT22;2951;47.712;9.400;2023-06-26T12:19:43;31.20;99.90
5850;DHT22;2951;47.712;9.400;2023-06-26T12:22:10;31.20;99.90
5850;DHT22;2951;47.712;9.400;2023-06-26T12:24:38;31.10;99.90
5850;DHT22;2951;47.712;9.400;2023-06-26T12:27:12;31.00;99.90
5850;DHT22;2951;47.712;9.400;2023-06-26T12:29:40;31.10;99.90
5850;DHT22;2951;47.712;9.400;2023-06-26T12:32:10;31.20;99.90
5850;DHT22;2951;47.712;9.400;2023-06-26T12:34:38;31.70;99.90
5850;DHT22;2951;47.712;9.400;2023-06-26T12:39:46;31.30;99.90
5850;DHT22;2951;47.712;9.400;2023-06-26T12:42:14;31.40;99.90
5850;DHT22;2951;47.712;9.400;2023-06-26T12:44:41;31.40;99.90
5850;DHT22;2951;47.712;9.400;2023-06-26T12:47:08;31.40;99.90
5850;DHT22;2951;47.712;9.400;2023-06-26T12:49:37;31.70;99.90
5850;DHT22;2951;47.712;9.400;2023-06-26T12:52:10;31.40;99.90
5850;DHT22;2951;47.712;9.400;2023-06-26T12:54:39;31.60;99.90
5850;DHT22;2951;47.712;9.400;2023-06-26T12:57:06;31.70;99.90
5850;DHT22;2951;47.712;9.400;2023-06-26T12:59:33;31.70;99.90
5850;DHT22;2951;47.712;9.400;2023-06-26T13:02:00;31.60;99.90
5850;DHT22;2951;47.712;9.400;2023-06-26T13:04:27;31.90;99.90
5850;DHT22;2951;47.712;9.400;2023-06-26T13:06:54;31.90;99.90
5850;DHT22;2951;47.712;9.400;2023-06-26T13:09:22;32.00;99.90
5850;DHT22;2951;47.712;9.400;2023-06-26T13:11:49;31.70;99.90
5850;DHT22;2951;47.712;9.400;2023-06-26T13:14:16;31.50;99.90
5850;DHT22;2951;47.712;9.400;2023-06-26T13:16:42;31.60;99.90
5850;DHT22;2951;47.712;9.400;2023-06-26T13:19:09;31.40;99.90
5850;DHT22;2951;47.712;9.400;2023-06-26T13:21:36;31.60;99.90
5850;DHT22;2951;47.712;9.400;2023-06-26T13:24:03;31.60;99.90
5850;DHT22;2951;47.712;9.400;2023-06-26T13:26:31;31.70;99.90
5850;DHT22;2951;47.712;9.400;2023-06-26T13:29:03;31.70;99.90
5850;DHT22;2951;47.712;9.400;2023-06-26T13:31:29;31.70;99.90
5850;DHT22;2951;47.712;9.400;2023-06-26T13:33:57;32.10;99.90
5850;DHT22;2951;47.712;9.400;2023-06-26T13:36:24;31.60;99.90
5850;DHT22;2951;47.712;9.400;2023-06-26T13:38:51;31.00;99.90
5850;DHT22;2951;47.712;9.400;2023-06-26T13:41:22;30.80;99.90
5850;DHT22;2951;47.712;9.400;2023-06-26T13:43:49;30.70;99.90
5850;DHT22;2951;47.712;9.400;2023-06-26T13:46:16;30.40;99.90
5850;DHT22;2951;47.712;9.400;2023-06-26T13:48:44;30.40;99.90
5850;DHT22;2951;47.712;9.400;2023-06-26T13:51:10;30.50;99.90
5850;DHT22;2951;47.712;9.400;2023-06-26T13:53:37;30.60;99.90
5850;DHT22;2951;47.712;9.400;2023-06-26T13:56:04;30.50;99.90
5850;DHT22;2951;47.712;9.400;2023-06-26T13:58:31;30.40;99.90
5850;DHT22;2951;47.712;9.400;2023-06-26T14:00:59;30.70;99.90
5850;DHT22;2951;47.712;9.400;2023-06-26T14:03:26;31.60;99.90
5850;DHT22;2951;47.712;9.400;2023-06-26T14:05:53;31.70;99.90
5850;DHT22;2951;47.712;9.400;2023-06-26T14:08:19;32.20;99.90
5850;DHT22;2951;47.712;9.400;2023-06-26T14:10:46;32.70;99.90
5850;DHT22;2951;47.712;9.400;2023-06-26T14:13:13;33.10;99.90
5850;DHT22;2951;47.712;9.400;2023-06-26T14:15:41;32.70;99.90
5850;DHT22;2951;47.712;9.400;2023-06-26T14:18:09;33.00;99.90
5850;DHT22;2951;47.712;9.400;2023-06-26T14:20:35;33.20;99.90
5850;DHT22;2951;47.712;9.400;2023-06-26T14:23:03;33.20;99.90
5850;DHT22;2951;47.712;9.400;2023-06-26T14:25:30;33.00;99.90
5850;DHT22;2951;47.712;9.400;2023-06-26T14:27:57;32.90;99.90
5850;DHT22;2951;47.712;9.400;2023-06-26T14:30:24;33.00;99.90
5850;DHT22;2951;47.712;9.400;2023-06-26T14:32:51;33.00;99.90
5850;DHT22;2951;47.712;9.400;2023-06-26T14:35:18;33.00;99.90
5850;DHT22;2951;47.712;9.400;2023-06-26T14:37:44;33.40;99.90
5850;DHT22;2951;47.712;9.400;2023-06-26T14:40:11;33.90;99.90
5850;DHT22;2951;47.712;9.400;2023-06-26T14:42:38;34.10;99.90
5850;DHT22;2951;47.712;9.400;2023-06-26T14:45:05;33.20;99.90
5850;DHT22;2951;47.712;9.400;2023-06-26T14:47:32;33.00;99.90
5850;DHT22;2951;47.712;9.400;2023-06-26T14:49:59;33.00;99.90
5850;DHT22;2951;47.712;9.400;2023-06-26T14:52:26;32.90;99.90
5850;DHT22;2951;47.712;9.400;2023-06-26T14:54:53;33.00;99.90
5850;DHT22;2951;47.712;9.400;2023-06-26T14:57:20;33.10;99.90
5850;DHT22;2951;47.712;9.400;2023-06-26T14:59:46;33.50;99.90
5850;DHT22;2951;47.712;9.400;2023-06-26T15:02:13;33.70;99.90
5850;DHT22;2951;47.712;9.400;2023-06-26T15:04:40;33.60;99.90
5850;DHT22;2951;47.712;9.400;2023-06-26T15:07:06;33.50;99.90
5850;DHT22;2951;47.712;9.400;2023-06-26T15:09:33;32.90;99.90
5850;DHT22;2951;47.712;9.400;2023-06-26T15:12:00;31.60;99.90
5850;DHT22;2951;47.712;9.400;2023-06-26T15:14:27;30.90;99.90
5850;DHT22;2951;47.712;9.400;2023-06-26T15:16:54;30.50;99.90
5850;DHT22;2951;47.712;9.400;2023-06-26T15:19:21;30.50;99.90
5850;DHT22;2951;47.712;9.400;2023-06-26T15:21:48;31.10;99.90
5850;DHT22;2951;47.712;9.400;2023-06-26T15:24:15;31.30;99.90
5850;DHT22;2951;47.712;9.400;2023-06-26T15:26:41;31.20;99.90
5850;DHT22;2951;47.712;9.400;2023-06-26T15:29:08;31.40;99.90
5850;DHT22;2951;47.712;9.400;2023-06-26T15:31:35;31.90;99.90
5850;DHT22;2951;47.712;9.400;2023-06-26T15:34:03;32.50;99.90
5850;DHT22;2951;47.712;9.400;2023-06-26T15:36:30;32.90;99.90
5850;DHT22;2951;47.712;9.400;2023-06-26T15:38:57;33.20;99.90
5850;DHT22;2951;47.712;9.400;2023-06-26T15:41:24;32.80;99.90
5850;DHT22;2951;47.712;9.400;2023-06-26T15:43:51;33.10;99.90
5850;DHT22;2951;47.712;9.400;2023-06-26T15:46:18;32.80;99.90
5850;DHT22;2951;47.712;9.400;2023-06-26T15:48:45;32.70;99.90
5850;DHT22;2951;47.712;9.400;2023-06-26T15:51:12;33.00;99.90
5850;DHT22;2951;47.712;9.400;2023-06-26T15:53:39;32.90;99.90
5850;DHT22;2951;47.712;9.400;2023-06-26T15:56:08;33.70;99.90
5850;DHT22;2951;47.712;9.400;2023-06-26T15:58:37;33.60;99.90
5850;DHT22;2951;47.712;9.400;2023-06-26T16:01:09;33.80;99.90
5850;DHT22;2951;47.712;9.400;2023-06-26T16:03:39;33.40;99.90
5850;DHT22;2951;47.712;9.400;2023-06-26T16:06:06;33.30;99.90
5850;DHT22;2951;47.712;9.400;2023-06-26T16:08:35;33.30;99.90
5850;DHT22;2951;47.712;9.400;2023-06-26T16:11:02;33.30;99.90
5850;DHT22;2951;47.712;9.400;2023-06-26T16:13:31;32.80;99.90
5850;DHT22;2951;47.712;9.400;2023-06-26T16:15:59;32.40;99.90
5850;DHT22;2951;47.712;9.400;2023-06-26T16:18:26;31.90;99.90